Time;durP1;ratioP1;P1;durP2;ratioP2;P2;SDS_P1;SDS_P2;PMS_P1;PMS_P2;Temp;Humidity;BMP_temperature;BMP_pressure;BME280_temperature;BME280_humidity;BME280_pressure;Samples;Min_cycle;Max_cycle;Signal;HPM_P1;HPM_P2
2022/10/11 00:01:17;;;;;;;13.80;4.05;;;;;;;12.04;100.00;97860.38;5027976;28;20042;-62
2022/10/11 00:03:43;;;;;;;7.95;3.85;;;;;;;12.08;100.00;97867.81;5027443;28;20049;-62
2022/10/11 00:06:10;;;;;;;9.32;3.97;;;;;;;12.08;100.00;97873.25;5027793;28;20123;-62
2022/10/11 00:08:36;;;;;;;9.10;4.50;;;;;;;12.07;100.00;97878.91;5027784;28;20536;-62
2022/10/11 00:11:06;;;;;;;16.75;5.43;;;;;;;12.08;100.00;97880.56;5026717;28;20041;-62
2022/10/11 00:13:33;;;;;;;8.57;5.20;;;;;;;12.07;100.00;97873.47;5027841;28;20080;-62
2022/10/11 00:15:59;;;;;;;13.88;5.75;;;;;;;12.03;100.00;97875.84;5027817;28;20056;-62
2022/10/11 00:18:26;;;;;;;13.02;5.80;;;;;;;12.04;100.00;97874.78;5024401;28;20056;-63
2022/10/11 00:21:01;;;;;;;10.88;5.18;;;;;;;12.01;100.00;97875.25;5015687;28;20050;-62
2022/10/11 00:23:28;;;;;;;14.95;5.80;;;;;;;12.03;100.00;97883.16;5012540;28;20055;-61
2022/10/11 00:26:02;;;;;;;12.75;5.47;;;;;;;11.98;100.00;97873.06;5027811;28;20586;-62
2022/10/11 00:28:30;;;;;;;12.38;5.45;;;;;;;11.97;100.00;97874.13;5026784;28;20442;-62
2022/10/11 00:30:57;;;;;;;12.45;5.75;;;;;;;12.02;100.00;97889.66;5027212;28;20049;-62
2022/10/11 00:33:24;;;;;;;11.02;5.13;;;;;;;11.95;100.00;97879.00;5027451;28;20501;-62
2022/10/11 00:35:50;;;;;;;69.63;7.10;;;;;;;11.80;100.00;97885.81;5026551;28;20041;-62
2022/10/11 00:38:17;;;;;;;11.25;5.45;;;;;;;11.76;100.00;97890.09;5027211;28;20053;-61
2022/10/11 00:40:44;;;;;;;13.15;5.95;;;;;;;11.65;100.00;97888.28;5026572;28;20051;-62
2022/10/11 00:43:20;;;;;;;12.57;5.15;;;;;;;11.56;100.00;97899.53;5026814;28;20045;-62
2022/10/11 00:45:55;;;;;;;12.60;6.10;;;;;;;11.53;100.00;97900.03;5027241;28;20124;-62
2022/10/11 00:48:28;;;;;;;13.70;5.75;;;;;;;11.40;100.00;97897.63;5026551;28;20508;-63
2022/10/11 00:50:59;;;;;;;11.55;5.63;;;;;;;11.21;100.00;97892.44;5027142;28;20116;-62
2022/10/11 00:53:29;;;;;;;14.23;5.68;;;;;;;11.04;100.00;97892.38;5026638;28;20042;-61
2022/10/11 00:56:04;;;;;;;12.70;6.47;;;;;;;11.06;100.00;97890.25;5026738;28;20128;-62
2022/10/11 00:58:35;;;;;;;11.13;7.00;;;;;;;11.08;100.00;97903.53;5026944;28;20120;-62
2022/10/11 01:01:02;;;;;;;18.40;8.32;;;;;;;11.06;100.00;97901.09;5026357;28;20129;-62
2022/10/11 01:03:30;;;;;;;10.52;6.57;;;;;;;11.02;100.00;97898.03;5026678;28;20033;-61
2022/10/11 01:05:57;;;;;;;13.63;7.90;;;;;;;11.12;100.00;97902.00;5025943;28;20128;-62
2022/10/11 01:08:24;;;;;;;21.42;10.07;;;;;;;11.28;100.00;97897.69;5026387;28;20045;-61
2022/10/11 01:10:51;;;;;;;19.40;9.90;;;;;;;11.38;100.00;97906.00;5026520;28;20834;-63
2022/10/11 01:13:42;;;;;;;24.45;9.98;;;;;;;11.44;100.00;97906.94;5018308;28;20037;-61
2022/10/11 01:16:23;;;;;;;21.80;9.13;;;;;;;11.44;100.00;97896.91;5026084;28;20116;-62
2022/10/11 01:19:03;;;;;;;16.67;9.13;;;;;;;11.41;100.00;97899.28;5025876;28;20081;-61
2022/10/11 01:21:49;;;;;;;17.63;8.57;;;;;;;11.41;100.00;97902.81;5025690;28;20041;-62
2022/10/11 01:24:39;;;;;;;18.08;8.18;;;;;;;11.47;100.00;97897.47;5024690;28;20030;-62
2022/10/11 01:27:12;;;;;;;19.40;9.50;;;;;;;11.44;100.00;97905.03;5025947;28;20116;-61
2022/10/11 01:30:01;;;;;;;23.23;9.77;;;;;;;11.47;100.00;97901.03;5026193;28;20076;-62
2022/10/11 01:32:53;;;;;;;20.55;9.80;;;;;;;11.52;100.00;97902.97;5025805;28;20053;-62
2022/10/11 01:35:29;;;;;;;21.45;10.50;;;;;;;11.54;100.00;97904.38;5026081;28;20747;-62
2022/10/11 01:38:06;;;;;;;27.30;11.35;;;;;;;11.62;100.00;97913.19;5024655;28;20055;-62
2022/10/11 01:40:38;;;;;;;21.88;10.52;;;;;;;11.72;100.00;97907.91;5025636;28;20128;-61
2022/10/11 01:43:05;;;;;;;21.90;11.60;;;;;;;11.84;100.00;97899.72;5025168;28;20038;-61
2022/10/11 01:45:33;;;;;;;19.75;11.02;;;;;;;11.87;100.00;97899.19;5026280;28;20120;-62
2022/10/11 01:48:08;;;;;;;20.85;10.30;;;;;;;11.90;100.00;97906.06;5025084;28;20041;-61
2022/10/11 01:50:43;;;;;;;28.58;12.48;;;;;;;11.92;100.00;97904.72;5025477;28;20054;-62
2022/10/11 01:53:38;;;;;;;20.50;11.68;;;;;;;11.94;100.00;97899.88;5025626;28;20034;-62
2022/10/11 01:56:23;;;;;;;26.15;11.10;;;;;;;11.95;100.00;97895.28;5026409;28;20045;-62
2022/10/11 01:59:05;;;;;;;28.30;12.43;;;;;;;11.96;100.00;97891.47;5025805;28;20472;-62
2022/10/11 02:01:40;;;;;;;22.30;11.95;;;;;;;11.97;100.00;97893.13;5026064;28;20073;-62
2022/10/11 02:04:23;;;;;;;17.42;8.48;;;;;;;11.97;100.00;97890.41;5026205;28;20045;-62
2022/10/11 02:07:00;;;;;;;23.95;12.30;;;;;;;12.04;100.00;97901.09;5025800;28;20049;-63
2022/10/11 02:09:45;;;;;;;25.42;14.18;;;;;;;12.08;100.00;97899.53;5026333;28;20042;-62
2022/10/11 02:12:18;;;;;;;27.52;14.07;;;;;;;12.12;100.00;97903.41;5025518;28;20128;-62
2022/10/11 02:14:48;;;;;;;32.33;16.27;;;;;;;12.16;100.00;97892.91;5026417;28;20041;-63
2022/10/11 02:17:21;;;;;;;32.65;14.77;;;;;;;12.21;100.00;97896.47;5025510;28;20038;-62
2022/10/11 02:19:52;;;;;;;29.15;14.65;;;;;;;12.20;100.00;97900.28;5026005;28;20046;-62
2022/10/11 02:22:41;;;;;;;32.55;14.75;;;;;;;12.25;100.00;97899.53;5025141;28;20041;-62
2022/10/11 02:25:14;;;;;;;26.20;15.23;;;;;;;12.26;100.00;97901.16;5025893;28;20092;-62
2022/10/11 02:27:44;;;;;;;28.83;14.30;;;;;;;12.31;100.00;97901.22;5025809;28;20811;-62
2022/10/11 02:30:12;;;;;;;22.92;13.48;;;;;;;12.31;100.00;97900.44;5025131;28;20096;-62
2022/10/11 02:32:41;;;;;;;31.02;14.75;;;;;;;12.34;100.00;97897.19;5025699;28;20055;-62
2022/10/11 02:35:10;;;;;;;28.17;13.98;;;;;;;12.39;100.00;97896.47;5025700;28;20469;-62
2022/10/11 02:37:55;;;;;;;24.95;14.38;;;;;;;12.36;100.00;97890.44;5025205;28;20046;-62
2022/10/11 02:40:34;;;;;;;23.05;13.45;;;;;;;12.36;100.00;97895.88;5025814;28;20224;-62
2022/10/11 02:43:06;;;;;;;25.33;13.77;;;;;;;12.33;100.00;97893.69;5025427;28;20580;-62
2022/10/11 02:45:37;;;;;;;30.20;14.30;;;;;;;12.40;100.00;97888.06;5024873;28;20099;-61
2022/10/11 02:48:06;;;;;;;34.83;16.80;;;;;;;12.44;100.00;97889.22;5023818;28;20085;-62
2022/10/11 02:50:33;;;;;;;24.35;13.50;;;;;;;12.41;100.00;97889.69;5025005;28;20080;-62
2022/10/11 02:53:00;;;;;;;19.75;13.65;;;;;;;12.41;100.00;97886.97;5025260;28;20124;-62
2022/10/11 02:55:26;;;;;;;27.73;14.07;;;;;;;12.39;100.00;97886.44;5025318;28;20046;-63
2022/10/11 02:57:53;;;;;;;21.65;12.82;;;;;;;12.42;100.00;97882.38;5025164;28;20073;-62
2022/10/11 03:00:19;;;;;;;27.98;14.55;;;;;;;12.41;100.00;97883.44;5026917;28;20049;-62
2022/10/11 03:02:46;;;;;;;28.48;15.38;;;;;;;12.35;100.00;97888.00;5028863;28;20536;-63
2022/10/11 03:05:12;;;;;;;26.15;14.25;;;;;;;12.34;100.00;97889.88;5028781;28;20125;-62
2022/10/11 03:07:38;;;;;;;28.83;13.55;;;;;;;12.21;100.00;97882.91;5028568;28;20124;-61
2022/10/11 03:10:06;;;;;;;23.15;14.25;;;;;;;12.03;100.00;97886.72;5029054;28;20564;-62
2022/10/11 03:12:32;;;;;;;24.50;14.32;;;;;;;11.79;100.00;97886.06;5027657;28;20041;-62
2022/10/11 03:14:58;;;;;;;25.60;14.13;;;;;;;11.61;100.00;97898.78;5019205;28;20722;-62
2022/10/11 03:17:26;;;;;;;28.88;15.20;;;;;;;11.59;100.00;97906.38;5027883;28;20080;-62
2022/10/11 03:20:08;;;;;;;35.65;16.38;;;;;;;11.56;100.00;97909.56;5028470;28;20049;-62
2022/10/11 03:22:35;;;;;;;30.33;15.52;;;;;;;11.56;100.00;97913.09;5028187;28;20048;-62
2022/10/11 03:25:02;;;;;;;30.48;15.80;;;;;;;11.55;100.00;97914.19;5028379;28;20041;-62
2022/10/11 03:27:32;;;;;;;33.47;16.95;;;;;;;11.61;100.00;97928.63;5028377;28;20038;-62
2022/10/11 03:29:59;;;;;;;33.13;17.13;;;;;;;11.63;100.00;97931.09;5028424;28;20153;-62
2022/10/11 03:32:26;;;;;;;39.28;19.08;;;;;;;11.71;100.00;97934.25;5028009;28;20037;-62
2022/10/11 03:34:52;;;;;;;40.35;19.63;;;;;;;11.69;100.00;97936.34;5027971;28;20038;-62
2022/10/11 03:37:19;;;;;;;39.33;18.33;;;;;;;11.69;100.00;97933.66;5027851;28;20564;-62
2022/10/11 03:39:45;;;;;;;41.03;20.55;;;;;;;11.67;100.00;97933.09;5028577;28;20053;-61
2022/10/11 03:42:13;;;;;;;40.25;20.98;;;;;;;11.71;100.00;97938.84;5027140;28;20129;-61
2022/10/11 03:44:40;;;;;;;39.42;20.50;;;;;;;11.76;100.00;97951.66;5028320;28;20037;-62
2022/10/11 03:47:07;;;;;;;44.38;21.85;;;;;;;11.79;100.00;97949.28;5027986;28;20073;-62
2022/10/11 03:49:34;;;;;;;43.53;20.40;;;;;;;11.83;100.00;97952.31;5027407;28;20037;-62
2022/10/11 03:52:06;;;;;;;44.20;21.48;;;;;;;11.81;100.00;97951.75;5012445;28;20095;-62
2022/10/11 03:54:33;;;;;;;36.88;19.98;;;;;;;11.83;100.00;97944.19;5027464;28;20041;-62
2022/10/11 03:56:59;;;;;;;44.92;20.90;;;;;;;11.79;100.00;97940.34;5027701;28;20132;-62
2022/10/11 03:59:26;;;;;;;37.92;21.58;;;;;;;11.79;100.00;97937.63;5027874;28;20524;-62
2022/10/11 04:01:52;;;;;;;43.22;19.92;;;;;;;11.86;100.00;97948.31;5027459;28;20425;-62
2022/10/11 04:04:18;;;;;;;43.72;19.17;;;;;;;11.81;100.00;97943.63;5043280;28;20045;-62
2022/10/11 04:06:45;;;;;;;38.20;19.40;;;;;;;11.84;100.00;97943.13;5027489;28;20060;-62
2022/10/11 04:09:11;;;;;;;36.45;19.45;;;;;;;11.92;100.00;97947.31;5027591;28;20099;-63
2022/10/11 04:11:38;;;;;;;41.53;19.67;;;;;;;11.92;100.00;97950.88;5026425;28;20051;-62
2022/10/11 04:14:04;;;;;;;36.72;19.55;;;;;;;11.92;100.00;97940.00;5027271;28;20049;-62
2022/10/11 04:16:31;;;;;;;33.45;17.25;;;;;;;11.92;100.00;97941.88;5031359;28;20042;-62
2022/10/11 04:18:57;;;;;;;27.77;16.63;;;;;;;11.91;100.00;97949.19;5035994;28;20475;-62
2022/10/11 04:21:24;;;;;;;33.00;18.40;;;;;;;11.88;100.00;97943.44;5026630;28;20052;-62
2022/10/11 04:23:50;;;;;;;28.52;17.48;;;;;;;11.95;100.00;97952.25;5026735;28;20055;-62
2022/10/11 04:26:17;;;;;;;36.42;16.52;;;;;;;11.93;100.00;97943.53;5025979;28;20120;-62
2022/10/11 04:28:43;;;;;;;31.42;17.10;;;;;;;11.92;100.00;97941.88;5027164;28;20034;-62
2022/10/11 04:31:10;;;;;;;32.88;17.20;;;;;;;11.91;100.00;97953.81;5018121;28;20045;-62
2022/10/11 04:33:36;;;;;;;34.90;18.30;;;;;;;11.93;100.00;97954.38;5022833;28;20049;-63
2022/10/11 04:36:03;;;;;;;40.80;19.25;;;;;;;11.94;100.00;97958.75;5026977;28;20037;-62
2022/10/11 04:38:30;;;;;;;31.65;17.95;;;;;;;11.90;100.00;97963.03;5026853;28;20057;-62
2022/10/11 04:41:05;;;;;;;34.03;18.10;;;;;;;11.87;100.00;97960.81;5026827;28;20053;-62
2022/10/11 04:43:32;;;;;;;35.65;18.42;;;;;;;11.86;100.00;97970.81;5026506;28;20048;-62
2022/10/11 04:45:58;;;;;;;35.35;19.25;;;;;;;11.82;100.00;97966.97;5027242;28;20564;-62
2022/10/11 04:48:25;;;;;;;34.47;18.08;;;;;;;11.82;100.00;97962.38;5026842;28;20129;-63
2022/10/11 04:50:51;;;;;;;33.35;17.55;;;;;;;11.77;100.00;97967.72;5026615;28;20073;-62
2022/10/11 04:53:18;;;;;;;34.83;19.05;;;;;;;11.79;100.00;97968.28;5027134;28;20471;-62
2022/10/11 04:55:59;;;;;;;34.03;18.40;;;;;;;11.78;100.00;97965.81;5026576;28;20125;-62
2022/10/11 04:58:27;;;;;;;33.30;17.92;;;;;;;11.81;100.00;97968.88;5026946;28;20087;-62
2022/10/11 05:00:54;;;;;;;32.17;17.98;;;;;;;11.82;100.00;97966.97;5026611;28;20056;-61
2022/10/11 05:03:20;;;;;;;30.30;17.92;;;;;;;11.84;100.00;97972.97;5026283;28;20124;-62
2022/10/11 05:05:47;;;;;;;38.72;19.08;;;;;;;11.83;100.00;97974.03;5027230;28;20033;-62
2022/10/11 05:08:14;;;;;;;32.70;17.70;;;;;;;11.85;100.00;97969.19;5026334;28;20136;-63
2022/10/11 05:10:40;;;;;;;33.30;18.30;;;;;;;11.84;100.00;97978.41;5026376;28;20046;-62
2022/10/11 05:13:07;;;;;;;36.55;18.50;;;;;;;11.83;100.00;97969.44;5026280;28;20076;-62
2022/10/11 05:15:33;;;;;;;33.15;17.40;;;;;;;11.84;100.00;97970.25;5026523;28;20034;-62
2022/10/11 05:18:00;;;;;;;30.30;18.27;;;;;;;11.92;100.00;97985.31;5026097;28;20059;-62
2022/10/11 05:20:26;;;;;;;33.33;17.67;;;;;;;11.91;100.00;97972.81;5026504;28;20038;-62
2022/10/11 05:22:53;;;;;;;26.92;15.93;;;;;;;11.92;100.00;97974.44;5026561;28;20120;-62
2022/10/11 05:25:19;;;;;;;33.55;17.60;;;;;;;11.88;100.00;97986.88;5026036;28;20049;-63
2022/10/11 05:27:46;;;;;;;30.33;17.17;;;;;;;11.87;100.00;97980.59;5026142;28;20073;-63
2022/10/11 05:30:12;;;;;;;39.55;19.38;;;;;;;11.88;100.00;97990.41;5026108;28;20041;-61
2022/10/11 05:32:38;;;;;;;39.70;19.20;;;;;;;11.85;100.00;97988.19;5025434;28;20081;-62
2022/10/11 05:35:05;;;;;;;32.15;17.50;;;;;;;11.89;100.00;97994.75;5033500;28;20047;-62
2022/10/11 05:37:32;;;;;;;33.70;17.95;;;;;;;11.87;100.00;97996.88;5026006;28;20045;-62
2022/10/11 05:39:58;;;;;;;34.70;18.25;;;;;;;11.89;100.00;98000.19;5032401;28;20048;-62
2022/10/11 05:42:25;;;;;;;30.48;18.40;;;;;;;11.92;100.00;97998.88;5022414;28;20097;-62
2022/10/11 05:44:51;;;;;;;35.13;19.52;;;;;;;11.87;100.00;98005.03;5025090;28;20408;-61
2022/10/11 05:47:18;;;;;;;33.58;18.63;;;;;;;11.88;100.00;98000.44;5026028;28;20045;-62
2022/10/11 05:49:44;;;;;;;41.40;19.10;;;;;;;11.88;100.00;98009.41;5026278;28;20406;-62
2022/10/11 05:52:12;;;;;;;34.92;17.88;;;;;;;11.87;100.00;98010.44;5022898;28;20132;-62
2022/10/11 05:54:38;;;;;;;35.33;19.05;;;;;;;11.81;100.00;98006.84;5024248;28;20040;-62
2022/10/11 05:57:04;;;;;;;36.20;19.23;;;;;;;11.85;100.00;98015.31;5022949;28;20045;-62
2022/10/11 05:59:31;;;;;;;36.38;18.80;;;;;;;11.86;100.00;98018.88;5023400;28;20060;-62
2022/10/11 06:01:57;;;;;;;35.42;17.70;;;;;;;11.92;100.00;98018.72;5031605;28;20131;-61
2022/10/11 06:04:24;;;;;;;34.42;18.02;;;;;;;11.91;100.00;98027.09;5029869;28;20045;-62
2022/10/11 06:06:50;;;;;;;33.13;18.60;;;;;;;11.87;100.00;98028.63;5030480;28;20575;-62
2022/10/11 06:09:17;;;;;;;30.70;18.67;;;;;;;11.92;100.00;98026.00;5029976;28;20706;-62
2022/10/11 06:11:44;;;;;;;32.50;17.90;;;;;;;11.90;100.00;98028.16;5031013;28;20040;-61
2022/10/11 06:14:10;;;;;;;35.00;18.73;;;;;;;11.88;100.00;98030.28;5032053;28;20124;-62
2022/10/11 06:16:37;;;;;;;33.83;18.33;;;;;;;11.88;100.00;98039.25;5029711;28;20088;-61
2022/10/11 06:19:03;;;;;;;32.65;18.90;;;;;;;11.83;100.00;98039.13;5032418;28;20038;-62
2022/10/11 06:21:30;;;;;;;31.83;17.83;;;;;;;11.86;100.00;98035.94;5031591;28;20766;-62
2022/10/11 06:23:56;;;;;;;33.60;18.48;;;;;;;11.91;100.00;98037.94;5026759;28;20463;-62
2022/10/11 06:26:27;;;;;;;40.60;22.10;;;;;;;11.89;100.00;98042.78;5018700;28;20058;-62
2022/10/11 06:29:15;;;;;;;34.95;18.95;;;;;;;11.92;100.00;98037.69;5025133;28;20064;-63
2022/10/11 06:31:41;;;;;;;30.48;17.33;;;;;;;11.94;100.00;98038.25;5015316;28;20050;-62
2022/10/11 06:34:08;;;;;;;38.22;20.65;;;;;;;11.89;100.00;98043.59;5016714;28;20138;-63
2022/10/11 06:36:34;;;;;;;29.70;17.45;;;;;;;11.94;100.00;98051.03;5032664;28;20037;-63
2022/10/11 06:39:01;;;;;;;28.92;15.80;;;;;;;11.98;100.00;98049.47;5025238;28;20566;-63
2022/10/11 06:41:29;;;;;;;34.38;17.33;;;;;;;11.99;100.00;98058.41;5025066;28;20152;-63
2022/10/11 06:43:56;;;;;;;31.40;17.52;;;;;;;11.95;100.00;98052.66;5026393;28;20068;-63
2022/10/11 06:46:25;;;;;;;29.35;17.75;;;;;;;12.00;100.00;98054.63;5027235;28;20053;-63
2022/10/11 06:48:53;;;;;;;28.00;17.00;;;;;;;11.99;100.00;98063.84;5019989;28;20064;-63
2022/10/11 06:51:20;;;;;;;33.53;16.88;;;;;;;12.00;100.00;98055.47;5016915;28;20053;-63
2022/10/11 06:53:49;;;;;;;28.75;17.48;;;;;;;12.07;100.00;98063.47;5024709;28;20563;-63
2022/10/11 06:56:15;;;;;;;26.85;16.30;;;;;;;12.05;100.00;98054.75;5027111;28;20037;-63
2022/10/11 06:58:42;;;;;;;25.35;16.50;;;;;;;12.13;100.00;98059.81;5026554;28;20673;-63
2022/10/11 07:01:17;;;;;;;31.08;16.08;;;;;;;12.11;100.00;98064.63;5027022;28;20619;-63
2022/10/11 07:03:44;;;;;;;27.73;16.85;;;;;;;12.18;100.00;98059.88;5026883;28;20055;-63
2022/10/11 07:06:13;;;;;;;25.75;15.32;;;;;;;12.17;100.00;98062.84;5026730;28;20635;-63
2022/10/11 07:08:40;;;;;;;27.83;15.90;;;;;;;12.16;100.00;98067.44;5026783;28;20112;-63
2022/10/11 07:11:12;;;;;;;34.22;16.50;;;;;;;12.09;100.00;98073.03;5026815;28;20041;-63
2022/10/11 07:13:39;;;;;;;;;;;;;;;12.17;100.00;98076.41;5028286;28;20112;-63
2022/10/11 07:16:09;;;;;;;24.00;14.98;;;;;;;12.23;100.00;98081.69;5028264;28;20372;-63
2022/10/11 07:18:36;;;;;;;27.08;14.32;;;;;;;12.26;100.00;98083.09;5028448;28;20041;-63
2022/10/11 07:21:11;;;;;;;26.13;14.88;;;;;;;12.29;100.00;98087.19;5028048;28;20579;-63
2022/10/11 07:23:37;;;;;;;22.45;14.45;;;;;;;12.33;100.00;98091.91;5028659;28;20068;-63
2022/10/11 07:26:06;;;;;;;21.02;13.50;;;;;;;12.41;100.00;98096.09;5028760;28;20572;-63
2022/10/11 07:28:33;;;;;;;22.35;12.60;;;;;;;12.45;100.00;98093.69;5028402;28;20542;-63
2022/10/11 07:31:10;;;;;;;24.20;13.90;;;;;;;12.40;100.00;98091.75;5028146;28;20045;-63
2022/10/11 07:33:36;;;;;;;28.13;14.10;;;;;;;12.37;100.00;98097.66;5024933;28;20073;-63
2022/10/11 07:36:04;;;;;;;21.45;12.38;;;;;;;12.39;100.00;98102.84;5026445;28;20497;-63
2022/10/11 07:38:32;;;;;;;22.75;13.57;;;;;;;12.46;100.00;98100.81;5026957;28;20045;-63
2022/10/11 07:41:04;;;;;;;21.90;13.55;;;;;;;12.41;100.00;98106.13;5025773;28;20080;-63
2022/10/11 07:43:30;;;;;;;27.15;14.07;;;;;;;12.44;100.00;98103.75;5028478;28;20124;-63
2022/10/11 07:46:02;;;;;;;22.90;13.88;;;;;;;12.35;100.00;98103.31;5026115;28;20069;-63
2022/10/11 07:48:30;;;;;;;27.17;14.55;;;;;;;12.41;100.00;98106.13;5026522;28;20128;-63
2022/10/11 07:51:15;;;;;;;28.83;13.43;;;;;;;12.50;100.00;98107.38;5027188;28;20053;-63
2022/10/11 07:53:46;;;;;;;24.30;13.50;;;;;;;12.55;100.00;98106.63;5027937;28;20179;-63
2022/10/11 07:56:18;;;;;;;20.05;13.93;;;;;;;12.62;100.00;98107.31;5028278;28;20149;-64
2022/10/11 07:58:49;;;;;;;23.52;13.63;;;;;;;12.65;100.00;98109.53;5027172;28;20140;-63
2022/10/11 08:01:16;;;;;;;25.45;14.93;;;;;;;12.58;100.00;98104.25;5027446;28;20168;-63
2022/10/11 08:03:42;;;;;;;21.92;13.23;;;;;;;12.64;100.00;98112.50;5027222;28;20057;-63
2022/10/11 08:06:12;;;;;;;28.25;15.43;;;;;;;12.53;100.00;98114.22;5028110;28;20041;-63
2022/10/11 08:08:39;;;;;;;24.85;13.95;;;;;;;12.54;100.00;98113.97;5019685;28;20127;-63
2022/10/11 08:11:06;;;;;;;27.33;16.05;;;;;;;12.49;100.00;98120.13;5007582;28;20117;-63
2022/10/11 08:13:32;;;;;;;26.35;14.60;;;;;;;12.47;100.00;98114.13;5026808;28;20128;-63
2022/10/11 08:15:59;;;;;;;27.60;15.30;;;;;;;12.53;100.00;98125.09;5027414;28;20600;-63
2022/10/11 08:18:26;;;;;;;28.27;14.52;;;;;;;12.58;100.00;98117.84;5027685;28;20084;-63
2022/10/11 08:20:52;;;;;;;25.98;14.55;;;;;;;12.63;100.00;98116.28;5027334;28;20136;-63
2022/10/11 08:23:19;;;;;;;26.63;13.23;;;;;;;12.77;100.00;98123.03;5027173;28;20065;-63
2022/10/11 08:25:46;;;;;;;30.73;13.70;;;;;;;12.67;100.00;98118.25;5008219;28;20493;-63
2022/10/11 08:28:16;;;;;;;27.55;14.45;;;;;;;12.80;100.00;98116.25;5020356;28;20124;-63
2022/10/11 08:30:51;;;;;;;25.40;14.20;;;;;;;12.95;100.00;98116.50;5027172;28;20439;-63
2022/10/11 08:33:19;;;;;;;22.60;13.13;;;;;;;13.07;100.00;98118.28;5027485;28;20587;-63
2022/10/11 08:35:46;;;;;;;23.92;13.00;;;;;;;13.22;100.00;98120.41;5027200;28;20047;-63
2022/10/11 08:38:13;;;;;;;25.05;13.48;;;;;;;13.07;100.00;98121.00;5027088;28;20061;-63
2022/10/11 08:41:20;;;;;;;25.08;14.50;;;;;;;12.96;100.00;98122.75;5026537;28;20497;-63
2022/10/11 08:44:19;;;;;;;25.70;13.38;;;;;;;13.00;100.00;98122.00;5015765;28;20082;-63
2022/10/11 08:46:51;;;;;;;32.03;13.52;;;;;;;12.92;100.00;98117.00;5008923;28;20124;-63
2022/10/11 08:49:28;;;;;;;25.40;13.30;;;;;;;13.07;100.00;98110.97;5027122;28;20111;-62
2022/10/11 08:52:03;;;;;;;22.63;12.43;;;;;;;13.26;100.00;98116.09;5026488;28;20311;-63
2022/10/11 08:54:41;;;;;;;25.48;12.38;;;;;;;13.10;100.00;98110.47;5026908;28;20052;-63
2022/10/11 08:57:13;;;;;;;24.52;13.70;;;;;;;13.08;100.00;98107.16;5026307;28;20400;-63
2022/10/11 08:59:48;;;;;;;;;;;;;;;13.14;100.00;98117.06;5024189;28;20116;-63
2022/10/11 09:02:21;;;;;;;30.00;13.85;;;;;;;13.12;100.00;98119.19;5024481;28;19931;-63
2022/10/11 09:04:52;;;;;;;23.85;14.45;;;;;;;12.96;100.00;98120.03;5024809;28;20519;-63
2022/10/11 09:07:48;;;;;;;25.50;12.90;;;;;;;13.04;100.00;98119.59;5024661;28;20049;-63
2022/10/11 09:10:33;;;;;;;31.67;14.73;;;;;;;12.83;100.00;98126.66;5013425;28;20775;-63
2022/10/11 09:13:18;;;;;;;25.48;13.95;;;;;;;13.00;100.00;98121.19;5024662;28;20060;-63
2022/10/11 09:16:07;;;;;;;24.15;13.13;;;;;;;12.98;100.00;98123.34;5023843;28;21042;-63
2022/10/11 09:18:55;;;;;;;24.60;13.68;;;;;;;12.96;100.00;98122.75;5024444;28;20045;-62
2022/10/11 09:21:39;;;;;;;25.27;13.48;;;;;;;12.86;100.00;98120.69;5023425;28;20132;-62
2022/10/11 09:24:27;;;;;;;19.88;12.35;;;;;;;12.96;100.00;98120.88;5024183;28;20052;-63
2022/10/11 09:26:59;;;;;;;20.50;12.82;;;;;;;13.02;100.00;98124.50;5024181;28;20547;-63
2022/10/11 09:29:28;;;;;;;21.23;12.45;;;;;;;13.15;100.00;98134.16;5024377;28;20120;-63
2022/10/11 09:31:56;;;;;;;19.90;12.73;;;;;;;12.98;100.00;98124.16;5023859;28;20045;-63
2022/10/11 09:34:25;;;;;;;20.30;13.35;;;;;;;13.01;100.00;98130.97;5015517;28;20050;-63
2022/10/11 09:36:54;;;;;;;22.00;11.90;;;;;;;13.13;100.00;98128.97;5024103;28;20055;-63
2022/10/11 09:39:32;;;;;;;19.30;12.45;;;;;;;13.09;100.00;98122.41;5023356;28;20045;-63
2022/10/11 09:42:07;;;;;;;22.42;12.70;;;;;;;13.16;100.00;98124.13;5023527;28;20045;-63
2022/10/11 09:44:39;;;;;;;24.80;13.00;;;;;;;13.11;100.00;98117.53;5024346;28;20045;-63
2022/10/11 09:47:13;;;;;;;18.92;11.18;;;;;;;13.25;100.00;98125.34;5024000;28;20051;-62
2022/10/11 09:49:43;;;;;;;22.77;12.93;;;;;;;13.11;100.00;98120.25;5024061;28;20152;-62
2022/10/11 09:52:15;;;;;;;22.00;12.73;;;;;;;12.84;100.00;98129.13;5013977;28;20049;-63
2022/10/11 09:54:45;;;;;;;25.23;13.20;;;;;;;12.82;100.00;98128.53;5023761;28;20049;-62
2022/10/11 09:57:27;;;;;;;28.88;14.63;;;;;;;12.86;100.00;98129.69;5024007;28;20431;-62
2022/10/11 10:00:15;;;;;;;22.48;12.93;;;;;;;13.00;100.00;98134.78;5023042;28;20128;-62
2022/10/11 10:02:45;;;;;;;22.27;12.77;;;;;;;13.17;100.00;98128.50;5023702;28;20053;-62
2022/10/11 10:05:17;;;;;;;22.83;13.50;;;;;;;13.07;100.00;98130.00;5023243;28;20041;-62
2022/10/11 10:08:03;;;;;;;21.77;13.02;;;;;;;13.21;100.00;98127.75;5023769;28;20060;-62
2022/10/11 10:10:40;;;;;;;22.33;11.90;;;;;;;13.37;100.00;98120.63;5016335;28;20041;-63
2022/10/11 10:13:20;;;;;;;20.65;12.63;;;;;;;13.23;100.00;98131.03;5026592;28;20041;-63
2022/10/11 10:15:52;;;;;;;26.63;12.90;;;;;;;13.12;100.00;98129.25;5028017;28;20548;-63
2022/10/11 10:18:28;;;;;;;21.50;11.88;;;;;;;13.25;100.00;98134.34;5027293;28;20041;-62
2022/10/11 10:20:58;;;;;;;26.15;12.68;;;;;;;13.13;100.00;98130.91;5027167;28;20129;-63
2022/10/11 10:23:31;;;;;;;22.08;13.32;;;;;;;13.14;100.00;98132.53;5027510;28;20400;-63
2022/10/11 10:26:15;;;;;;;28.75;13.93;;;;;;;13.09;100.00;98143.34;5028072;28;20052;-63
2022/10/11 10:29:02;;;;;;;22.45;12.68;;;;;;;13.07;100.00;98135.44;5027666;28;20045;-62
2022/10/11 10:31:37;;;;;;;25.52;14.63;;;;;;;12.88;100.00;98143.88;5027444;28;20128;-63
2022/10/11 10:34:29;;;;;;;18.17;11.65;;;;;;;13.10;100.00;98137.66;5029380;28;20057;-63
2022/10/11 10:37:02;;;;;;;15.43;10.93;;;;;;;13.23;100.00;98138.38;5029175;28;20112;-63
2022/10/11 10:39:40;;;;;;;25.02;12.25;;;;;;;13.24;100.00;98140.03;5029312;28;20117;-63
2022/10/11 10:42:17;;;;;;;23.30;11.70;;;;;;;13.39;100.00;98142.94;5026165;28;20428;-62
2022/10/11 10:44:52;;;;;;;23.05;12.52;;;;;;;13.53;98.91;98140.69;5026850;28;20140;-62
2022/10/11 10:47:44;;;;;;;19.05;11.68;;;;;;;13.67;97.17;98139.50;5027342;28;20041;-62
2022/10/11 10:50:25;;;;;;;18.08;10.70;;;;;;;13.64;98.58;98138.94;5027300;28;20645;-62
2022/10/11 10:53:04;;;;;;;20.02;11.98;;;;;;;13.45;97.83;98132.16;5027419;28;20053;-63
2022/10/11 10:55:39;;;;;;;17.83;10.50;;;;;;;13.67;96.71;98134.88;5027596;28;20129;-60
2022/10/11 10:58:11;;;;;;;16.90;10.80;;;;;;;13.71;96.05;98135.22;5027383;28;20528;-62
2022/10/11 11:01:22;;;;;;;21.52;11.45;;;;;;;13.48;97.31;98132.47;5026493;28;20445;-62
2022/10/11 11:04:03;;;;;;;15.40;10.55;;;;;;;13.26;99.73;98130.53;5001706;28;20080;-62
2022/10/11 11:06:41;;;;;;;22.10;12.45;;;;;;;13.20;99.11;98131.53;5026817;28;20124;-62
2022/10/11 11:09:43;;;;;;;21.50;11.80;;;;;;;13.16;99.51;98135.00;5018798;28;20053;-62
2022/10/11 11:12:40;;;;;;;18.30;12.30;;;;;;;13.15;99.73;98123.28;4991028;28;20093;-62
2022/10/11 11:15:23;;;;;;;18.38;11.82;;;;;;;13.31;99.39;98132.50;5026763;28;20037;-63
2022/10/11 11:18:03;;;;;;;;;;;;;;;13.48;97.13;98120.75;5027206;28;20083;-62
2022/10/11 11:20:58;;;;;;;22.88;12.32;;;;;;;13.40;98.51;98122.84;5025521;28;19935;-62
2022/10/11 11:23:49;;;;;;;17.25;10.70;;;;;;;13.53;95.83;98124.38;5026310;28;20121;-63
2022/10/11 11:26:22;;;;;;;18.63;10.90;;;;;;;13.59;96.42;98114.38;5026716;28;20441;-63
2022/10/11 11:29:14;;;;;;;17.67;11.35;;;;;;;13.59;96.38;98117.09;5025872;28;20140;-63
2022/10/11 11:32:02;;;;;;;21.65;11.55;;;;;;;13.74;95.94;98118.34;5025686;28;20719;-63
2022/10/11 11:34:37;;;;;;;19.45;11.75;;;;;;;13.86;92.76;98116.31;5026847;28;20091;-63